< < Back
Terminal Aerodrome Forecast


Current Version              Previous Versions:   1  2  3  4  5  6  7  8  9  

Terminal Aerodrome Forecast

214
FTUS42 KGSP 281451 AAA
TAFCLT
TAF AMD
KCLT 281451Z 2815/0112 05008KT P6SM OVC110
     FM010600 04007KT P6SM BKN028
     FM011000 03007KT P6SM -FZRA OVC010=

Latest METAR

261
SAUS70 KWBC 282300 RRA
MTRCLT
METAR KCLT 282252Z 03008KT 10SM SCT120 BKN250 04/M08 A3063 RMK AO2
SLP376 T00441078


USA.gov is the U.S. government's official web portal to all federal, state and local government web resources and services.